Time;durP1;ratioP1;P1;durP2;ratioP2;P2;SDS_P1;SDS_P2;PMS_P1;PMS_P2;Temp;Humidity;BMP_temperature;BMP_pressure;BME280_temperature;BME280_humidity;BME280_pressure;Samples;Min_cycle;Max_cycle;Signal;HPM_P1;HPM_P2
2024/02/23 00:04:39;;;;;;;0.52;0.52;;;;;;;5.36;100.00;98572.66;10459878;28;20040;-73
2024/02/23 00:09:39;;;;;;;0.30;0.30;;;;;;;5.23;100.00;98578.97;10474534;28;20037;-74
2024/02/23 00:14:40;;;;;;;0.43;0.43;;;;;;;5.19;100.00;98593.84;10471305;28;20044;-72
2024/02/23 00:19:40;;;;;;;0.77;0.77;;;;;;;5.19;100.00;98593.03;10472656;28;20412;-72
2024/02/23 00:24:41;;;;;;;0.50;0.50;;;;;;;5.32;100.00;98606.31;10470848;28;20048;-72
2024/02/23 00:29:41;;;;;;;0.40;0.40;;;;;;;5.28;100.00;98605.94;10471444;28;20116;-73
2024/02/23 00:34:42;;;;;;;0.35;0.35;;;;;;;5.26;100.00;98605.34;10472270;28;20036;-73
2024/02/23 00:39:42;;;;;;;10.18;2.05;;;;;;;5.26;100.00;98636.72;10435521;28;20535;-73
2024/02/23 00:44:42;;;;;;;1.13;1.13;;;;;;;5.36;100.00;98645.94;10467536;28;20377;-72
2024/02/23 00:49:43;;;;;;;0.43;0.43;;;;;;;5.41;100.00;98639.09;10466906;28;20061;-72
2024/02/23 00:54:43;;;;;;;0.60;0.60;;;;;;;5.44;100.00;98627.91;10461850;28;20048;-71
2024/02/23 00:59:44;;;;;;;10.93;3.30;;;;;;;5.28;100.00;98651.56;10460883;28;20049;-73
2024/02/23 01:04:44;;;;;;;0.40;0.40;;;;;;;4.57;100.00;98675.94;10462000;28;20041;-74
2024/02/23 01:09:44;;;;;;;0.50;0.50;;;;;;;4.26;100.00;98669.47;10462303;28;20465;-72
2024/02/23 01:14:45;;;;;;;0.50;0.50;;;;;;;4.37;100.00;98671.50;10462513;28;20122;-74
2024/02/23 01:19:45;;;;;;;0.50;0.50;;;;;;;4.49;100.00;98678.84;10461906;28;20021;-73
2024/02/23 01:24:46;;;;;;;0.50;0.50;;;;;;;4.57;100.00;98695.53;10463929;28;20461;-74
2024/02/23 01:29:46;;;;;;;0.50;0.50;;;;;;;4.54;100.00;98681.72;10464168;28;20123;-75
2024/02/23 01:34:46;;;;;;;0.50;0.50;;;;;;;4.52;100.00;98694.50;10447413;28;20041;-75
2024/02/23 01:39:47;;;;;;;0.60;0.60;;;;;;;4.60;100.00;98716.53;10464129;28;20045;-75
2024/02/23 01:44:47;;;;;;;1.88;1.77;;;;;;;4.43;100.00;98708.16;10464570;28;20436;-75
2024/02/23 01:49:48;;;;;;;0.50;0.50;;;;;;;4.37;100.00;98709.00;10464755;28;20064;-75
2024/02/23 01:54:48;;;;;;;0.50;0.50;;;;;;;4.35;100.00;98716.44;10462861;28;20037;-75
2024/02/23 01:59:48;;;;;;;0.50;0.50;;;;;;;4.29;100.00;98711.09;10429792;28;20500;-75
2024/02/23 02:04:49;;;;;;;0.60;0.60;;;;;;;4.34;100.00;98730.03;10464216;28;20029;-75
2024/02/23 02:09:50;;;;;;;0.47;0.47;;;;;;;4.41;100.00;98731.66;10462903;28;20417;-75
2024/02/23 02:14:50;;;;;;;0.45;0.45;;;;;;;4.43;100.00;98739.47;10447986;28;20041;-76
2024/02/23 02:19:51;;;;;;;0.45;0.45;;;;;;;4.58;100.00;98733.88;10467241;28;20032;-75
2024/02/23 02:24:51;;;;;;;0.40;0.40;;;;;;;4.68;100.00;98738.78;10465661;28;20563;-76
2024/02/23 02:29:51;;;;;;;0.60;0.60;;;;;;;4.64;100.00;98733.03;10464383;28;20036;-75
2024/02/23 02:34:52;;;;;;;1.42;1.15;;;;;;;4.79;100.00;98738.94;10463897;28;20029;-76
2024/02/23 02:39:52;;;;;;;0.50;0.50;;;;;;;4.82;100.00;98743.88;10458069;28;20084;-75
2024/02/23 02:44:53;;;;;;;0.40;0.40;;;;;;;4.83;100.00;98731.28;10456190;28;20044;-76
2024/02/23 02:49:53;;;;;;;0.40;0.40;;;;;;;4.73;100.00;98728.25;10456359;28;20067;-75
2024/02/23 02:54:54;;;;;;;0.40;0.40;;;;;;;4.84;100.00;98735.63;10455780;28;20480;-76
2024/02/23 02:59:54;;;;;;;0.47;0.47;;;;;;;4.75;100.00;98721.63;10436959;28;20032;-75
2024/02/23 03:04:55;;;;;;;0.50;0.50;;;;;;;4.74;100.00;98751.34;10454967;28;20466;-73
2024/02/23 03:09:55;;;;;;;0.52;0.52;;;;;;;4.61;100.00;98750.34;10455125;28;20484;-75
2024/02/23 03:14:56;;;;;;;0.47;0.47;;;;;;;4.53;100.00;98750.59;10457389;28;20036;-73
2024/02/23 03:19:57;;;;;;;0.40;0.40;;;;;;;4.54;100.00;98752.25;10456771;28;20040;-73
2024/02/23 03:24:58;;;;;;;0.32;0.32;;;;;;;4.56;100.00;98765.41;10455623;28;20173;-72
2024/02/23 03:29:58;;;;;;;0.40;0.40;;;;;;;4.54;100.00;98770.19;10454796;28;20057;-72
2024/02/23 03:34:58;;;;;;;0.40;0.40;;;;;;;4.42;100.00;98773.50;10455181;28;20041;-71
2024/02/23 03:40:02;;;;;;;0.65;0.65;;;;;;;4.37;100.00;98770.63;10456344;28;20072;-71
2024/02/23 03:45:03;;;;;;;0.60;0.60;;;;;;;4.24;100.00;98764.47;10454370;28;20488;-73
2024/02/23 03:50:04;;;;;;;0.50;0.50;;;;;;;4.24;100.00;98759.94;10454025;28;20044;-70
2024/02/23 03:55:05;;;;;;;0.50;0.50;;;;;;;4.06;100.00;98765.13;10453763;28;20040;-73
2024/02/23 04:00:07;;;;;;;13.73;2.33;;;;;;;3.98;100.00;98766.16;10454079;28;20048;-73
2024/02/23 04:05:08;;;;;;;12.55;2.58;;;;;;;3.95;100.00;98764.69;10452579;28;20049;-71
2024/02/23 04:10:08;;;;;;;10.52;2.97;;;;;;;3.88;100.00;98779.94;10452645;28;20144;-72
2024/02/23 04:15:09;;;;;;;10.63;2.92;;;;;;;3.87;100.00;98767.59;10454655;28;20037;-73
2024/02/23 04:20:10;;;;;;;8.55;3.85;;;;;;;3.97;100.00;98778.72;10453984;28;20032;-72
2024/02/23 04:25:10;;;;;;;6.53;3.25;;;;;;;4.06;100.00;98778.53;10454142;28;20032;-71
2024/02/23 04:30:11;;;;;;;16.10;3.50;;;;;;;4.30;100.00;98774.34;10458891;28;20033;-72
2024/02/23 04:35:12;;;;;;;14.88;3.10;;;;;;;4.42;100.00;98781.53;10459945;28;20036;-71
2024/02/23 04:40:12;;;;;;;12.05;3.28;;;;;;;4.49;100.00;98783.38;10442800;28;20068;-71
2024/02/23 04:45:13;;;;;;;10.10;2.72;;;;;;;4.52;100.00;98772.25;10460116;28;20120;-71
2024/02/23 04:50:14;;;;;;;6.88;2.53;;;;;;;4.53;100.00;98765.84;10459981;28;20059;-70
2024/02/23 04:55:14;;;;;;;3.65;2.20;;;;;;;4.39;100.00;98771.22;10460396;28;20033;-71
2024/02/23 05:00:14;;;;;;;9.48;1.88;;;;;;;4.36;100.00;98768.97;10459680;28;20096;-70
2024/02/23 05:05:15;;;;;;;4.50;2.17;;;;;;;4.46;100.00;98781.13;10458244;28;20043;-74
2024/02/23 05:10:17;;;;;;;8.27;2.92;;;;;;;4.31;100.00;98762.63;10460703;28;20439;-74
2024/02/23 05:15:17;;;;;;;2.13;1.90;;;;;;;4.41;100.00;98771.03;10460733;28;20037;-73
2024/02/23 05:20:17;;;;;;;0.50;0.50;;;;;;;4.43;100.00;98764.44;10461150;28;20033;-74
2024/02/23 05:25:18;;;;;;;0.50;0.50;;;;;;;4.56;100.00;98758.22;10460745;28;20029;-75
2024/02/23 05:30:18;;;;;;;0.57;0.57;;;;;;;4.61;100.00;98762.94;10460675;28;20428;-73
2024/02/23 05:35:19;;;;;;;0.50;0.50;;;;;;;4.60;100.00;98759.44;10460122;28;20047;-73
2024/02/23 05:40:19;;;;;;;0.75;0.75;;;;;;;4.62;100.00;98757.34;10443331;28;20204;-72
2024/02/23 05:45:20;;;;;;;0.40;0.40;;;;;;;4.62;100.00;98748.50;10458892;28;20048;-72
2024/02/23 05:50:20;;;;;;;0.52;0.52;;;;;;;4.58;100.00;98747.28;10459068;28;20436;-73
2024/02/23 05:55:20;;;;;;;2.33;0.77;;;;;;;4.58;100.00;98753.44;10457557;28;20049;-71
2024/02/23 06:00:21;;;;;;;0.47;0.47;;;;;;;4.61;100.00;98749.53;10459052;28;20094;-73
2024/02/23 06:05:21;;;;;;;0.50;0.50;;;;;;;4.65;100.00;98743.53;10458160;28;20116;-70
2024/02/23 06:10:22;;;;;;;0.60;0.60;;;;;;;4.60;100.00;98724.59;10456336;28;20037;-72
2024/02/23 06:15:22;;;;;;;0.50;0.50;;;;;;;4.59;100.00;98744.38;10456731;28;20037;-71
2024/02/23 06:20:23;;;;;;;0.50;0.50;;;;;;;4.71;100.00;98749.09;10456500;28;20028;-72
2024/02/23 06:25:23;;;;;;;0.55;0.55;;;;;;;4.72;100.00;98731.94;10456777;28;20583;-71
2024/02/23 06:30:23;;;;;;;0.57;0.57;;;;;;;4.63;100.00;98742.13;10439098;28;20032;-71
2024/02/23 06:35:24;;;;;;;13.23;4.38;;;;;;;4.69;100.00;98727.00;10455555;28;20033;-72
2024/02/23 06:40:24;;;;;;;13.63;4.68;;;;;;;4.66;100.00;98731.78;10453903;28;20143;-71
2024/02/23 06:45:25;;;;;;;5.47;3.08;;;;;;;4.66;100.00;98730.97;10454974;28;20140;-73
2024/02/23 06:50:26;;;;;;;5.22;3.05;;;;;;;4.69;100.00;98754.66;10456006;28;20037;-72
2024/02/23 06:55:26;;;;;;;3.35;2.58;;;;;;;4.64;100.00;98741.06;10455552;28;20469;-73
2024/02/23 07:00:27;;;;;;;3.60;3.03;;;;;;;4.70;100.00;98734.84;10455958;28;20032;-70
2024/02/23 07:05:27;;;;;;;11.60;4.68;;;;;;;4.56;100.00;98739.47;10455282;28;20119;-70
2024/02/23 07:10:28;;;;;;;4.95;4.18;;;;;;;4.52;100.00;98727.50;10437164;28;20488;-71
2024/02/23 07:15:29;;;;;;;5.97;3.70;;;;;;;4.53;100.00;98729.16;10455019;28;20037;-71
2024/02/23 07:20:29;;;;;;;10.25;4.45;;;;;;;4.55;100.00;98737.78;10453793;28;20080;-72
2024/02/23 07:25:30;;;;;;;6.82;3.30;;;;;;;4.52;100.00;98730.16;10452648;28;20057;-70
2024/02/23 07:30:31;;;;;;;10.00;3.58;;;;;;;4.33;100.00;98723.84;10456330;28;20095;-73
2024/02/23 07:35:31;;;;;;;0.70;0.70;;;;;;;4.17;100.00;98745.72;10453282;28;20041;-75
2024/02/23 07:40:32;;;;;;;2.65;2.55;;;;;;;3.99;100.00;98734.84;10436579;28;20122;-75
2024/02/23 07:45:34;;;;;;;0.50;0.50;;;;;;;3.91;100.00;98720.63;10454136;28;20037;-73
2024/02/23 07:50:34;;;;;;;0.70;0.70;;;;;;;3.82;100.00;98705.81;10454596;28;20036;-76
2024/02/23 07:55:34;;;;;;;0.50;0.50;;;;;;;3.95;100.00;98716.50;10420496;28;20036;-75
2024/02/23 08:00:38;;;;;;;0.50;0.50;;;;;;;4.04;100.00;98724.31;10444156;28;20033;-76
2024/02/23 08:05:38;;;;;;;0.50;0.50;;;;;;;4.08;100.00;98720.19;10473692;28;20036;-75
2024/02/23 08:10:39;;;;;;;0.60;0.60;;;;;;;4.09;100.00;98719.19;10465802;28;20033;-75
2024/02/23 08:15:39;;;;;;;1.95;1.85;;;;;;;4.13;100.00;98710.50;10463074;28;20119;-77
2024/02/23 08:20:40;;;;;;;5.57;2.78;;;;;;;4.30;100.00;98723.44;10445288;28;20402;-73
2024/02/23 08:25:40;;;;;;;0.70;0.70;;;;;;;4.32;100.00;98714.16;10461845;28;20107;-73
2024/02/23 08:30:40;;;;;;;51.75;3.70;;;;;;;4.27;100.00;98697.06;10460877;28;20036;-74
2024/02/23 08:35:41;;;;;;;0.52;0.52;;;;;;;4.39;100.00;98724.84;10460961;28;20040;-73
2024/02/23 08:40:42;;;;;;;0.80;0.80;;;;;;;4.25;100.00;98724.09;10461177;28;20129;-74
2024/02/23 08:45:42;;;;;;;33.33;4.50;;;;;;;4.26;100.00;98709.66;10460764;28;20120;-73
2024/02/23 08:50:42;;;;;;;0.50;0.50;;;;;;;4.34;100.00;98712.09;10461273;28;20048;-73
2024/02/23 08:55:44;;;;;;;0.50;0.50;;;;;;;4.56;100.00;98715.34;10460133;28;20059;-74
2024/02/23 09:00:44;;;;;;;0.82;0.82;;;;;;;4.74;100.00;98708.44;10459805;28;20033;-73
2024/02/23 09:05:46;;;;;;;3.75;3.50;;;;;;;4.71;100.00;98708.88;10461449;28;20049;-75
2024/02/23 09:10:47;;;;;;;0.50;0.50;;;;;;;4.96;100.00;98708.94;10460707;28;20059;-76
2024/02/23 09:15:47;;;;;;;0.50;0.50;;;;;;;5.11;100.00;98722.91;10457995;28;20047;-77
2024/02/23 09:20:48;;;;;;;0.50;0.50;;;;;;;5.17;100.00;98723.88;10442834;28;20076;-77
2024/02/23 09:25:48;;;;;;;0.50;0.50;;;;;;;5.40;100.00;98718.78;10459480;28;20040;-77
2024/02/23 09:30:49;;;;;;;0.50;0.50;;;;;;;5.41;100.00;98714.22;10460275;28;20036;-76
2024/02/23 09:35:49;;;;;;;8.70;4.00;;;;;;;5.53;100.00;98720.53;10459354;28;20056;-77
2024/02/23 09:40:50;;;;;;;8.65;3.08;;;;;;;5.98;100.00;98752.63;10459256;28;20044;-77
2024/02/23 09:45:51;;;;;;;2.30;1.92;;;;;;;5.66;100.00;98725.81;10458930;28;20135;-76
2024/02/23 09:50:52;;;;;;;4.68;2.47;;;;;;;5.69;100.00;98759.47;10457059;28;20040;-74
2024/02/23 09:55:52;;;;;;;15.63;3.08;;;;;;;5.78;100.00;98748.22;10456548;28;20065;-72
2024/02/23 10:00:53;;;;;;;5.32;2.33;;;;;;;6.00;100.00;98762.13;10440736;28;20025;-73
2024/02/23 10:05:53;;;;;;;8.70;2.15;;;;;;;6.04;100.00;98760.63;10457903;28;20458;-74
2024/02/23 10:10:54;;;;;;;4.10;2.30;;;;;;;6.74;100.00;98779.16;10456362;28;20037;-70
2024/02/23 10:15:55;;;;;;;11.05;2.08;;;;;;;6.99;100.00;98748.63;10457861;28;20025;-73
2024/02/23 10:20:57;;;;;;;5.22;2.03;;;;;;;6.66;100.00;98771.38;10456388;28;20159;-70
2024/02/23 10:25:58;;;;;;;4.53;2.47;;;;;;;6.59;100.00;98786.75;10456014;28;20477;-73
2024/02/23 10:31:00;;;;;;;11.73;4.10;;;;;;;6.98;100.00;98790.84;10455796;28;20052;-70
2024/02/23 10:36:00;;;;;;;2.42;2.22;;;;;;;7.09;100.00;98800.06;10457280;28;20401;-71
2024/02/23 10:41:01;;;;;;;6.63;2.47;;;;;;;7.73;100.00;98772.66;10454304;28;20068;-73
2024/02/23 10:46:03;;;;;;;9.63;2.05;;;;;;;7.96;100.00;98810.41;10438745;28;20536;-70
2024/02/23 10:51:05;;;;;;;4.68;1.48;;;;;;;7.62;100.00;98858.56;10438195;28;20033;-71
2024/02/23 10:56:05;;;;;;;5.70;2.45;;;;;;;7.45;100.00;98817.19;10454773;28;20039;-71
2024/02/23 11:01:08;;;;;;;5.65;2.80;;;;;;;7.19;100.00;98840.69;10455464;28;20035;-71
2024/02/23 11:06:08;;;;;;;4.45;1.88;;;;;;;7.06;100.00;98851.63;10454742;28;20044;-70
2024/02/23 11:11:09;;;;;;;2.17;2.08;;;;;;;7.10;100.00;98849.31;10454081;28;20098;-70
2024/02/23 11:16:10;;;;;;;5.57;2.45;;;;;;;7.16;100.00;98857.31;10453891;28;20428;-71
2024/02/23 11:21:11;;;;;;;1.92;1.75;;;;;;;7.20;100.00;98847.72;10454633;28;20676;-69
2024/02/23 11:26:12;;;;;;;2.45;2.30;;;;;;;7.10;100.00;98874.34;10454241;28;20060;-71
2024/02/23 11:31:16;;;;;;;8.00;2.25;;;;;;;7.18;100.00;98866.00;10454116;28;20131;-71
2024/02/23 11:36:29;;;;;;;5.47;3.17;;;;;;;7.25;100.00;98873.16;10435907;28;20045;-70
2024/02/23 11:41:30;;;;;;;2.88;1.42;;;;;;;7.41;100.00;98861.78;10454476;28;20082;-73
2024/02/23 11:46:30;;;;;;;3.33;1.67;;;;;;;8.05;100.00;98865.63;10452591;28;20087;-73
2024/02/23 11:51:31;;;;;;;2.03;1.92;;;;;;;8.39;100.00;98852.44;10454023;28;20421;-70
2024/02/23 11:56:31;;;;;;;6.13;1.65;;;;;;;10.05;100.00;98850.97;10452199;28;20045;-71
2024/02/23 12:01:32;;;;;;;15.82;2.92;;;;;;;10.43;100.00;98847.56;10454560;28;20070;-70
2024/02/23 12:06:33;;;;;;;5.93;2.25;;;;;;;10.00;100.00;98854.41;10452500;28;20035;-69
2024/02/23 12:11:33;;;;;;;1.42;1.27;;;;;;;9.91;100.00;98861.28;10451819;28;20029;-69
2024/02/23 12:16:38;;;;;;;4.70;2.38;;;;;;;9.40;100.00;98857.63;10452212;28;20029;-70
2024/02/23 12:21:38;;;;;;;14.15;2.22;;;;;;;9.23;100.00;98871.06;10451441;28;20033;-68
2024/02/23 12:26:39;;;;;;;4.68;1.70;;;;;;;9.65;100.00;98862.69;10453215;28;20406;-70
2024/02/23 12:31:39;;;;;;;3.47;2.42;;;;;;;10.50;100.00;98879.88;10434917;28;20147;-70
2024/02/23 12:36:40;;;;;;;5.25;1.98;;;;;;;10.80;100.00;98863.28;10452690;28;20132;-70
2024/02/23 12:41:40;;;;;;;1.58;1.48;;;;;;;10.29;100.00;98884.16;10453354;28;20056;-69
2024/02/23 12:46:40;;;;;;;5.78;1.67;;;;;;;10.59;100.00;98891.91;10453019;28;20041;-69
2024/02/23 12:51:41;;;;;;;1.30;1.27;;;;;;;10.04;100.00;98892.59;10458581;28;20032;-70
2024/02/23 12:56:42;;;;;;;2.33;1.70;;;;;;;9.77;100.00;98901.31;10462316;28;20408;-72
2024/02/23 13:01:42;;;;;;;1.52;1.35;;;;;;;9.38;100.00;98901.09;10463061;28;20464;-71
2024/02/23 13:06:43;;;;;;;2.53;1.52;;;;;;;9.36;100.00;98896.97;10442849;28;20057;-70
2024/02/23 13:11:43;;;;;;;2.05;1.40;;;;;;;9.02;100.00;98894.09;10460042;28;20507;-69
2024/02/23 13:16:44;;;;;;;1.95;1.80;;;;;;;8.77;100.00;98905.13;10441537;28;20033;-69
2024/02/23 13:21:44;;;;;;;14.15;1.33;;;;;;;8.73;100.00;98903.97;10457920;28;20025;-71
2024/02/23 13:26:44;;;;;;;5.93;2.08;;;;;;;8.53;100.00;98904.31;10456906;28;20040;-70
2024/02/23 13:31:45;;;;;;;2.50;1.60;;;;;;;8.57;100.00;98892.81;10458684;28;20120;-70
2024/02/23 13:36:45;;;;;;;4.80;0.90;;;;;;;8.69;100.00;98900.09;10458587;28;20044;-70
2024/02/23 13:41:46;;;;;;;1.13;1.00;;;;;;;8.58;100.00;98894.47;10457056;28;20178;-69
2024/02/23 13:46:46;;;;;;;1.10;1.10;;;;;;;8.59;100.00;98895.28;10459306;28;20039;-71
2024/02/23 13:51:47;;;;;;;1.10;1.10;;;;;;;8.53;100.00;98902.44;10440020;28;20072;-71
2024/02/23 13:56:47;;;;;;;1.38;0.95;;;;;;;8.47;100.00;98914.16;10457566;28;20158;-71
2024/02/23 14:01:48;;;;;;;1.25;1.15;;;;;;;8.55;100.00;98915.66;10456796;28;20041;-69
2024/02/23 14:06:48;;;;;;;18.00;1.58;;;;;;;8.40;100.00;98929.63;10457386;28;20056;-68
2024/02/23 14:11:49;;;;;;;1.65;0.80;;;;;;;8.35;100.00;98930.28;10455799;28;20116;-72
2024/02/23 14:16:49;;;;;;;3.30;1.10;;;;;;;8.27;100.00;98932.50;10456652;28;20045;-70
2024/02/23 14:21:51;;;;;;;3.45;1.45;;;;;;;8.33;100.00;98934.28;10457107;28;20178;-71
2024/02/23 14:26:51;;;;;;;7.05;1.30;;;;;;;8.21;100.00;98944.19;10457726;28;20112;-69
2024/02/23 14:31:51;;;;;;;2.38;2.08;;;;;;;8.24;100.00;98946.44;10440559;28;20029;-71
2024/02/23 14:36:52;;;;;;;3.40;1.45;;;;;;;8.03;100.00;98928.91;10456275;28;20049;-70
2024/02/23 14:41:52;;;;;;;1.48;1.38;;;;;;;8.08;100.00;98943.34;10456956;28;20033;-70
2024/02/23 14:46:53;;;;;;;1.65;1.25;;;;;;;8.06;100.00;98945.44;10455761;28;20435;-70
2024/02/23 14:51:53;;;;;;;6.18;1.50;;;;;;;7.99;100.00;98955.50;10457473;28;20067;-70
2024/02/23 14:56:54;;;;;;;1.58;1.50;;;;;;;8.02;100.00;98965.00;10455660;28;20033;-71
2024/02/23 15:01:54;;;;;;;2.55;1.52;;;;;;;7.82;100.00;98976.88;10455746;28;20076;-74
2024/02/23 15:06:54;;;;;;;3.20;1.25;;;;;;;7.88;100.00;98964.34;10453339;28;20029;-70
2024/02/23 15:11:55;;;;;;;9.70;2.05;;;;;;;8.05;100.00;98967.25;10453556;28;20033;-70
2024/02/23 15:16:55;;;;;;;1.35;1.17;;;;;;;8.02;100.00;98962.31;10454226;28;20134;-69
2024/02/23 15:21:56;;;;;;;4.20;1.45;;;;;;;8.02;100.00;98957.72;10455307;28;20121;-70
2024/02/23 15:26:57;;;;;;;1.80;1.70;;;;;;;8.08;100.00;98972.19;10458122;28;20062;-70
2024/02/23 15:31:57;;;;;;;1.15;1.00;;;;;;;7.98;100.00;98978.13;10461253;28;20083;-69
2024/02/23 15:36:58;;;;;;;2.88;1.75;;;;;;;8.06;100.00;98975.09;10456886;28;20053;-69
2024/02/23 15:41:58;;;;;;;1.77;1.67;;;;;;;8.11;100.00;98982.50;10454113;28;20029;-70
2024/02/23 15:46:58;;;;;;;5.22;3.03;;;;;;;7.96;100.00;98969.41;10454672;28;20109;-69
2024/02/23 15:51:59;;;;;;;5.10;2.60;;;;;;;8.12;100.00;98958.00;10454600;28;20033;-69
2024/02/23 15:57:00;;;;;;;2.40;2.17;;;;;;;8.17;100.00;98970.81;10452583;28;20041;-72
2024/02/23 16:02:02;;;;;;;2.10;1.42;;;;;;;8.11;100.00;98972.53;10454089;28;20112;-70
2024/02/23 16:07:02;;;;;;;2.83;2.35;;;;;;;7.96;100.00;98969.41;10452997;28;20108;-71
2024/02/23 16:12:03;;;;;;;4.28;1.33;;;;;;;8.01;100.00;98983.06;10454167;28;20430;-69
2024/02/23 16:17:04;;;;;;;7.25;1.23;;;;;;;7.71;100.00;98990.28;10434938;28;20039;-70
2024/02/23 16:22:04;;;;;;;1.42;1.33;;;;;;;7.64;100.00;98999.25;10453513;28;20124;-70
2024/02/23 16:27:05;;;;;;;1.48;1.15;;;;;;;7.53;100.00;99002.72;10442941;28;20037;-70
2024/02/23 16:32:05;;;;;;;1.55;0.90;;;;;;;7.23;100.00;99011.50;10461718;28;20391;-70
2024/02/23 16:37:06;;;;;;;3.47;1.02;;;;;;;7.16;100.00;99009.91;10460117;28;20048;-70
2024/02/23 16:42:06;;;;;;;1.00;1.00;;;;;;;7.09;100.00;99009.16;10461774;28;20453;-69
2024/02/23 16:47:07;;;;;;;4.63;1.77;;;;;;;6.89;100.00;99006.63;10459284;28;20068;-69
2024/02/23 16:52:07;;;;;;;2.72;1.83;;;;;;;6.66;100.00;99023.38;10460198;28;20480;-69
2024/02/23 16:57:09;;;;;;;3.33;1.33;;;;;;;6.57;100.00;99020.09;10458409;28;20115;-69
2024/02/23 17:02:09;;;;;;;2.13;1.23;;;;;;;6.42;100.00;99025.81;10442150;28;20449;-70
2024/02/23 17:07:10;;;;;;;1.05;0.95;;;;;;;6.23;100.00;99030.25;10461093;28;20071;-70
2024/02/23 17:12:10;;;;;;;1.33;1.10;;;;;;;6.21;100.00;99031.50;10458378;28;20143;-70
2024/02/23 17:17:11;;;;;;;8.05;1.58;;;;;;;6.01;100.00;99037.81;10459963;28;20071;-71
2024/02/23 17:22:11;;;;;;;1.00;1.00;;;;;;;6.10;100.00;99049.16;10460115;28;20033;-69
2024/02/23 17:27:12;;;;;;;1.00;1.00;;;;;;;6.08;100.00;99050.38;10457770;28;20040;-69
2024/02/23 17:32:13;;;;;;;2.60;1.27;;;;;;;5.97;100.00;99051.91;10458657;28;20044;-71
2024/02/23 17:37:13;;;;;;;1.63;1.52;;;;;;;5.86;100.00;99057.88;10459279;28;20115;-69
2024/02/23 17:42:13;;;;;;;0.98;0.98;;;;;;;5.74;100.00;99071.13;10459466;28;20091;-69
2024/02/23 17:47:14;;;;;;;2.38;2.15;;;;;;;5.66;100.00;99071.38;10458270;28;20040;-69
2024/02/23 17:52:14;;;;;;;1.58;1.48;;;;;;;5.69;100.00;99073.66;10425584;28;20477;-71
2024/02/23 17:57:15;;;;;;;1.30;1.20;;;;;;;5.63;100.00;99078.00;10459468;28;20362;-70
2024/02/23 18:02:15;;;;;;;2.65;1.73;;;;;;;5.61;100.00;99066.63;10460565;28;20477;-71
2024/02/23 18:07:15;;;;;;;4.63;1.85;;;;;;;5.49;100.00;99089.81;10456458;28;20029;-71
2024/02/23 18:12:16;;;;;;;1.30;1.10;;;;;;;5.42;100.00;99092.47;10457549;28;20063;-70
2024/02/23 18:17:16;;;;;;;2.55;2.10;;;;;;;5.48;100.00;99101.56;10439708;28;20346;-69
2024/02/23 18:22:17;;;;;;;1.00;1.00;;;;;;;5.49;100.00;99087.13;10457386;28;20091;-69
2024/02/23 18:27:17;;;;;;;2.33;2.22;;;;;;;5.68;100.00;99098.84;10456393;28;20499;-69
2024/02/23 18:32:18;;;;;;;2.35;2.15;;;;;;;5.67;100.00;99097.19;10456018;28;20076;-69
2024/02/23 18:37:19;;;;;;;1.90;1.90;;;;;;;5.72;100.00;99108.13;10456730;28;20083;-70
2024/02/23 18:42:19;;;;;;;1.20;1.20;;;;;;;5.86;100.00;99115.13;10439489;28;20146;-71
2024/02/23 18:47:20;;;;;;;1.98;1.85;;;;;;;5.75;100.00;99108.53;10453837;28;20037;-68
2024/02/23 18:52:20;;;;;;;4.78;2.28;;;;;;;5.71;100.00;99125.25;10439007;28;20063;-70
2024/02/23 18:57:20;;;;;;;5.43;2.10;;;;;;;5.69;100.00;99117.44;10454720;28;20442;-70
2024/02/23 19:02:21;;;;;;;2.65;1.60;;;;;;;5.69;100.00;99114.75;10422346;28;20105;-68
2024/02/23 19:07:22;;;;;;;1.13;1.13;;;;;;;5.61;100.00;99109.59;10458057;28;20067;-69
2024/02/23 19:12:23;;;;;;;1.35;1.27;;;;;;;5.59;100.00;99119.72;10439518;28;20498;-70
2024/02/23 19:17:23;;;;;;;0.70;0.70;;;;;;;5.44;100.00;99122.63;10455791;28;20036;-70
2024/02/23 19:22:24;;;;;;;1.88;1.77;;;;;;;5.53;100.00;99123.25;10437040;28;20060;-69
2024/02/23 19:27:24;;;;;;;1.42;1.10;;;;;;;5.44;100.00;99137.91;10455283;28;20048;-71
2024/02/23 19:32:25;;;;;;;1.25;1.25;;;;;;;5.38;100.00;99133.38;10453774;28;20053;-72
2024/02/23 19:37:25;;;;;;;1.90;1.75;;;;;;;5.46;100.00;99135.84;10420215;28;20145;-70
2024/02/23 19:42:26;;;;;;;2.00;1.75;;;;;;;5.55;100.00;99121.16;10453114;28;20064;-72
2024/02/23 19:47:26;;;;;;;1.30;1.25;;;;;;;5.53;100.00;99132.13;10454609;28;20044;-73
2024/02/23 19:52:29;;;;;;;3.58;1.73;;;;;;;5.60;100.00;99129.44;10453330;28;20029;-74
2024/02/23 19:57:29;;;;;;;2.15;1.30;;;;;;;5.67;100.00;99142.84;10456102;28;20040;-71
2024/02/23 20:02:29;;;;;;;1.55;1.42;;;;;;;5.65;100.00;99140.38;10461843;28;20037;-72
2024/02/23 20:07:30;;;;;;;1.23;1.23;;;;;;;5.50;100.00;99137.09;10463382;28;20112;-71
2024/02/23 20:12:30;;;;;;;3.05;1.30;;;;;;;5.47;100.00;99148.25;10462301;28;20047;-74
2024/02/23 20:17:31;;;;;;;2.53;2.33;;;;;;;5.41;100.00;99149.06;10443957;28;20472;-72
2024/02/23 20:22:31;;;;;;;3.17;1.90;;;;;;;5.35;100.00;99151.53;10463072;28;20519;-73
2024/02/23 20:27:32;;;;;;;5.60;1.75;;;;;;;5.27;100.00;99159.81;10463082;28;20057;-70
2024/02/23 20:32:32;;;;;;;4.50;1.85;;;;;;;5.21;100.00;99155.25;10461418;28;20037;-73
2024/02/23 20:37:33;;;;;;;2.80;2.13;;;;;;;5.12;100.00;99164.53;10461494;28;20146;-73
2024/02/23 20:42:33;;;;;;;3.42;2.33;;;;;;;5.09;100.00;99170.31;10461489;28;20119;-72
2024/02/23 20:47:34;;;;;;;2.55;2.35;;;;;;;5.07;100.00;99169.69;10460512;28;20076;-71
2024/02/23 20:52:35;;;;;;;2.78;2.50;;;;;;;5.14;100.00;99178.59;10460495;28;20047;-70
2024/02/23 20:57:35;;;;;;;3.38;2.67;;;;;;;5.12;100.00;99167.22;10460804;28;20532;-72
2024/02/23 21:02:38;;;;;;;2.80;2.33;;;;;;;5.16;100.00;99171.13;10442921;28;20036;-74
2024/02/23 21:07:38;;;;;;;3.38;3.08;;;;;;;5.14;100.00;99183.94;10460485;28;20491;-71
2024/02/23 21:12:39;;;;;;;3.53;3.25;;;;;;;5.17;100.00;99178.19;10457508;28;20122;-73
2024/02/23 21:17:39;;;;;;;8.18;3.58;;;;;;;5.18;100.00;99185.19;10458936;28;20029;-72
2024/02/23 21:22:40;;;;;;;4.60;3.67;;;;;;;5.32;100.00;99189.53;10460436;28;20033;-71
2024/02/23 21:27:40;;;;;;;4.50;3.88;;;;;;;5.35;100.00;99180.22;10459707;28;20043;-71
2024/02/23 21:32:41;;;;;;;6.38;4.20;;;;;;;5.31;100.00;99187.06;10459180;28;20116;-72
2024/02/23 21:37:41;;;;;;;3.00;2.70;;;;;;;5.32;100.00;99197.56;10458028;28;20491;-71
2024/02/23 21:42:41;;;;;;;7.18;4.53;;;;;;;5.49;100.00;99189.13;10459206;28;20491;-73
2024/02/23 21:47:42;;;;;;;6.40;3.38;;;;;;;5.39;100.00;99184.16;10443312;28;20033;-72
2024/02/23 21:52:45;;;;;;;3.80;3.42;;;;;;;5.39;100.00;99186.84;10466456;28;20040;-71
2024/02/23 21:57:46;;;;;;;4.45;2.92;;;;;;;5.37;100.00;99194.28;10462071;28;20044;-71
2024/02/23 22:02:46;;;;;;;3.08;2.67;;;;;;;5.24;100.00;99208.53;10458582;28;20392;-70
2024/02/23 22:07:46;;;;;;;5.22;2.28;;;;;;;5.21;100.00;99194.69;10457380;28;20135;-72
2024/02/23 22:12:47;;;;;;;2.88;2.70;;;;;;;5.24;100.00;99197.78;10457262;28;20033;-71
2024/02/23 22:17:47;;;;;;;6.70;3.17;;;;;;;5.23;100.00;99201.50;10457741;28;20494;-71
2024/02/23 22:22:48;;;;;;;3.83;3.00;;;;;;;5.14;100.00;99200.03;10456192;28;20041;-71
2024/02/23 22:27:48;;;;;;;2.67;2.28;;;;;;;5.06;100.00;99208.28;10440733;28;20456;-71
2024/02/23 22:32:48;;;;;;;2.15;2.05;;;;;;;4.89;100.00;99207.81;10439338;28;20037;-71
2024/02/23 22:37:49;;;;;;;3.42;3.20;;;;;;;4.71;100.00;99216.44;10455380;28;20504;-70
2024/02/23 22:42:49;;;;;;;8.77;4.03;;;;;;;4.71;100.00;99207.56;10456957;28;20045;-72
2024/02/23 22:47:50;;;;;;;5.47;4.50;;;;;;;4.72;100.00;99207.34;10456564;28;20041;-70
2024/02/23 22:52:50;;;;;;;5.88;5.18;;;;;;;4.85;100.00;99215.47;10458310;28;20068;-71
2024/02/23 22:57:51;;;;;;;12.48;7.28;;;;;;;4.85;100.00;99218.13;10459964;28;20045;-71
2024/02/23 23:02:51;;;;;;;7.57;6.50;;;;;;;4.73;100.00;99211.69;10456171;28;20037;-69
2024/02/23 23:07:51;;;;;;;5.50;4.97;;;;;;;4.61;100.00;99210.63;10456255;28;20079;-70
2024/02/23 23:12:52;;;;;;;5.05;3.65;;;;;;;4.65;100.00;99204.63;10455345;28;20090;-71
2024/02/23 23:17:52;;;;;;;5.68;3.85;;;;;;;4.72;100.00;99218.06;10439989;28;20452;-71